Yuho Maru No.3 — JD2491 — position and weather

sailwx.info

Track history (hours):
 
Tides and Currents Weather Stations Pressure Air Temp Water Temp Dewpoint Dewpoint Depression Visibility Wind Speed Wind Dir Waves Ship Positions

Yuho Maru No.3

Last reported at 2017-Apr-28 09:32 UTC. Time now 2017-Apr-28 10:22 UTC.
Position N 34°31' E 135°24'.

Length 65 m; draft 3.3 m.

Type: Tanker. MMSI: 431000336.

Date/timePositionNaut miles runAvg speedWind from/ knotsBaromVisibWave heightAir tempDewpointWater temp
2017-Apr-28 09:32N 34°31' E 135°24'0 0.0
2017-Apr-28 09:16N 34°31' E 135°24'0 0.0
2017-Apr-28 08:59N 34°31' E 135°24'0 0.0
2017-Apr-28 08:30N 34°31' E 135°24'0 0.0
2017-Apr-28 07:59N 34°31' E 135°24'0 0.0
2017-Apr-28 07:26N 34°31' E 135°24'0 0.0
2017-Apr-28 07:00N 34°31' E 135°24'0 0.0
2017-Apr-28 06:13N 34°31' E 135°24'0 0.0
2017-Apr-28 05:57N 34°31' E 135°24'0 0.0
2017-Apr-28 05:22N 34°31' E 135°24'0 0.0
2017-Apr-28 04:56N 34°31' E 135°24'0 0.0
2017-Apr-28 04:13N 34°31' E 135°24'0 0.0
2017-Apr-28 03:49N 34°31' E 135°24'0 0.0
2017-Apr-27 10:37N 34°31' E 135°24'1 4.6
2017-Apr-27 10:30N 34°31' E 135°24'611.9
2017-Apr-27 09:59N 34°37' E 135°21'5 9.5
2017-Apr-27 09:30N 34°40' E 135°25'0 0.0
2017-Apr-27 09:00N 34°40' E 135°25'0 0.0
2017-Apr-27 08:30N 34°40' E 135°25'0 0.0
2017-Apr-27 08:00N 34°40' E 135°25'1 1.3
2017-Apr-27 07:29N 34°40' E 135°25'0 0.0
2017-Apr-27 07:00N 34°40' E 135°25'0 0.0
2017-Apr-27 06:30N 34°40' E 135°25'0 0.0
2017-Apr-27 05:58N 34°40' E 135°25'0 0.0
2017-Apr-27 05:30N 34°40' E 135°25'0 0.0
2017-Apr-27 05:00N 34°40' E 135°25'0 0.0
2017-Apr-27 04:17N 34°40' E 135°25'0 0.6
2017-Apr-27 04:00N 34°40' E 135°25'2 4.6
2017-Apr-27 03:30N 34°40' E 135°22'3 7.0
2017-Apr-27 03:00N 34°39' E 135°18'0 0.1
2017-Apr-27 02:30N 34°39' E 135°18'0 0.1
2017-Apr-27 02:00N 34°39' E 135°18'0 0.1
2017-Apr-27 01:30N 34°39' E 135°18'0 0.0
2017-Apr-27 01:00N 34°39' E 135°18'0 0.0
2017-Apr-27 00:30N 34°39' E 135°18'0 0.0
2017-Apr-27 00:00N 34°39' E 135°18'0 0.0
2017-Apr-26 23:30N 34°39' E 135°18'0 0.0
2017-Apr-26 23:00N 34°39' E 135°18'0 0.7
2017-Apr-26 22:30N 34°39' E 135°18'1 1.6
2017-Apr-26 22:00N 34°39' E 135°19'0 0.0
2017-Apr-26 21:30N 34°39' E 135°19'0 0.0
2017-Apr-26 21:00N 34°39' E 135°19'0 0.0
2017-Apr-26 20:30N 34°39' E 135°19'0 0.0
2017-Apr-26 20:00N 34°39' E 135°19'0 0.0
2017-Apr-26 19:30N 34°39' E 135°19'0 0.0
2017-Apr-26 18:59N 34°39' E 135°19'0 0.0
2017-Apr-26 18:30N 34°39' E 135°19'0 0.0
2017-Apr-26 18:00N 34°39' E 135°19'0 0.0
2017-Apr-26 17:30N 34°39' E 135°19'3 5.3
2017-Apr-26 17:00N 34°37' E 135°17'612.7
2017-Apr-26 16:30N 34°35' E 135°09'714.0
2017-Apr-26 16:00N 34°37' E 135°01'814.5
2017-Apr-26 15:29N 34°34' E 134°52'8 0.2
2017-Apr-25 07:50N 34°37' E 135°01'411.6
2017-Apr-25 07:30N 34°35' E 135°05'611.1
2017-Apr-25 07:00N 34°30' E 135°04'1611.8
2017-Apr-25 05:37N 34°13' E 135°01'111.4
2017-Apr-25 05:30N 34°12' E 135°02'611.8
2017-Apr-25 05:00N 34°08' E 135°06'1 2.3
2017-Apr-25 04:26N 34°07' E 135°07'0 0.0
2017-Apr-25 03:57N 34°07' E 135°07'0 0.0
2017-Apr-25 03:30N 34°07' E 135°07'0 0.0
2017-Apr-25 02:59N 34°07' E 135°07'0 0.0
2017-Apr-25 02:30N 34°07' E 135°07'0 0.0
2017-Apr-25 02:00N 34°07' E 135°07'0 0.0
2017-Apr-25 01:30N 34°07' E 135°07'0 0.0
2017-Apr-25 01:00N 34°07' E 135°07'0 0.0
2017-Apr-25 00:30N 34°07' E 135°07'0 0.0
2017-Apr-25 00:00N 34°07' E 135°07'0 0.0
2017-Apr-24 23:30N 34°07' E 135°07'0 0.0
2017-Apr-24 23:00N 34°07' E 135°07'0 0.0
2017-Apr-24 22:30N 34°07' E 135°07'0 0.1
2017-Apr-24 22:00N 34°07' E 135°07'1 1.1
2017-Apr-24 21:29N 34°07' E 135°07'0 0.0
2017-Apr-24 20:58N 34°07' E 135°07'0 0.0
2017-Apr-24 20:30N 34°07' E 135°07'0 0.0
2017-Apr-24 19:59N 34°07' E 135°07'0 0.0
2017-Apr-24 19:30N 34°07' E 135°07'0 0.0
2017-Apr-24 19:00N 34°07' E 135°07'0 0.0
2017-Apr-24 18:27N 34°07' E 135°07'0 0.1
2017-Apr-24 18:00N 34°07' E 135°07'0 0.0
2017-Apr-24 17:26N 34°07' E 135°07'0 0.0
2017-Apr-24 17:00N 34°07' E 135°07'0 0.0
2017-Apr-24 16:30N 34°07' E 135°07'0 0.0
2017-Apr-24 15:57N 34°07' E 135°07'0 0.0
2017-Apr-24 15:29N 34°07' E 135°07'0 0.0
2017-Apr-24 15:00N 34°07' E 135°07'0 0.0
2017-Apr-24 14:30N 34°07' E 135°07'  
2017-Apr-21 07:24N 34°37' E 135°01'512.8
2017-Apr-21 07:00N 34°35' E 135°07'612.2
2017-Apr-21 06:30N 34°34' E 135°14'612.2
2017-Apr-21 06:00N 34°33' E 135°22'3 0.6
2017-Apr-21 00:22N 34°33' E 135°26'0 0.0
2017-Apr-20 23:21N 34°33' E 135°26'0 0.0
2017-Apr-20 22:47N 34°33' E 135°26'1 3.7
2017-Apr-20 22:30N 34°33' E 135°24'510.0
2017-Apr-20 22:00N 34°33' E 135°18'0 0.0
2017-Apr-20 21:30N 34°33' E 135°18'0 0.0
2017-Apr-20 21:00N 34°33' E 135°18'0 0.0
2017-Apr-20 20:27N 34°33' E 135°18'0 0.0
2017-Apr-20 20:00N 34°33' E 135°18'0 0.0
2017-Apr-20 19:30N 34°33' E 135°18'0 0.0
2017-Apr-20 18:57N 34°33' E 135°18'0 0.0
2017-Apr-20 18:28N 34°33' E 135°18'0 0.0
2017-Apr-20 18:00N 34°33' E 135°18'0 0.0
2017-Apr-20 17:30N 34°33' E 135°18'0 0.0
2017-Apr-20 17:00N 34°33' E 135°18'0 0.0
2017-Apr-20 16:30N 34°33' E 135°18'0 0.0
2017-Apr-20 16:00N 34°33' E 135°18'0 0.0
2017-Apr-20 15:30N 34°33' E 135°18'0 0.0
2017-Apr-20 15:00N 34°33' E 135°18'0 0.0
2017-Apr-20 13:51N 34°33' E 135°18'0 0.1
2017-Apr-20 13:30N 34°33' E 135°18'2 4.1
2017-Apr-20 13:00N 34°33' E 135°16'612.6
2017-Apr-20 12:30N 34°34' E 135°09'713.2
2017-Apr-20 12:00N 34°37' E 135°01'  
Track history (hours):
 
Tides and Currents Weather Stations Pressure Air Temp Water Temp Dewpoint Dewpoint Depression Visibility Wind Speed Wind Dir Waves Ship Positions

Yuho Maru No.3

Last reported at 2017-Apr-28 09:32 UTC. Time now 2017-Apr-28 10:22 UTC.
Position N 34°31' E 135°24'.

Length 65 m; draft 3.3 m.

Type: Tanker. MMSI: 431000336.

Date/timePositionNaut miles runAvg speedWind from/ knotsBaromVisibWave heightAir tempDewpointWater temp
2017-Apr-28 09:32N 34°31' E 135°24'0 0.0
2017-Apr-28 09:16N 34°31' E 135°24'0 0.0
2017-Apr-28 08:59N 34°31' E 135°24'0 0.0
2017-Apr-28 08:30N 34°31' E 135°24'0 0.0
2017-Apr-28 07:59N 34°31' E 135°24'0 0.0
2017-Apr-28 07:26N 34°31' E 135°24'0 0.0
2017-Apr-28 07:00N 34°31' E 135°24'0 0.0
2017-Apr-28 06:13N 34°31' E 135°24'0 0.0
2017-Apr-28 05:57N 34°31' E 135°24'0 0.0
2017-Apr-28 05:22N 34°31' E 135°24'0 0.0
2017-Apr-28 04:56N 34°31' E 135°24'0 0.0
2017-Apr-28 04:13N 34°31' E 135°24'0 0.0
2017-Apr-28 03:49N 34°31' E 135°24'0 0.0
2017-Apr-27 10:37N 34°31' E 135°24'1 4.6
2017-Apr-27 10:30N 34°31' E 135°24'611.9
2017-Apr-27 09:59N 34°37' E 135°21'5 9.5
2017-Apr-27 09:30N 34°40' E 135°25'0 0.0
2017-Apr-27 09:00N 34°40' E 135°25'0 0.0
2017-Apr-27 08:30N 34°40' E 135°25'0 0.0
2017-Apr-27 08:00N 34°40' E 135°25'1 1.3
2017-Apr-27 07:29N 34°40' E 135°25'0 0.0
2017-Apr-27 07:00N 34°40' E 135°25'0 0.0
2017-Apr-27 06:30N 34°40' E 135°25'0 0.0
2017-Apr-27 05:58N 34°40' E 135°25'0 0.0
2017-Apr-27 05:30N 34°40' E 135°25'0 0.0
2017-Apr-27 05:00N 34°40' E 135°25'0 0.0
2017-Apr-27 04:17N 34°40' E 135°25'0 0.6
2017-Apr-27 04:00N 34°40' E 135°25'2 4.6
2017-Apr-27 03:30N 34°40' E 135°22'3 7.0
2017-Apr-27 03:00N 34°39' E 135°18'0 0.1
2017-Apr-27 02:30N 34°39' E 135°18'0 0.1
2017-Apr-27 02:00N 34°39' E 135°18'0 0.1
2017-Apr-27 01:30N 34°39' E 135°18'0 0.0
2017-Apr-27 01:00N 34°39' E 135°18'0 0.0
2017-Apr-27 00:30N 34°39' E 135°18'0 0.0
2017-Apr-27 00:00N 34°39' E 135°18'0 0.0
2017-Apr-26 23:30N 34°39' E 135°18'0 0.0
2017-Apr-26 23:00N 34°39' E 135°18'0 0.7
2017-Apr-26 22:30N 34°39' E 135°18'1 1.6
2017-Apr-26 22:00N 34°39' E 135°19'0 0.0
2017-Apr-26 21:30N 34°39' E 135°19'0 0.0
2017-Apr-26 21:00N 34°39' E 135°19'0 0.0
2017-Apr-26 20:30N 34°39' E 135°19'0 0.0
2017-Apr-26 20:00N 34°39' E 135°19'0 0.0
2017-Apr-26 19:30N 34°39' E 135°19'0 0.0
2017-Apr-26 18:59N 34°39' E 135°19'0 0.0
2017-Apr-26 18:30N 34°39' E 135°19'0 0.0
2017-Apr-26 18:00N 34°39' E 135°19'0 0.0
2017-Apr-26 17:30N 34°39' E 135°19'3 5.3
2017-Apr-26 17:00N 34°37' E 135°17'612.7
2017-Apr-26 16:30N 34°35' E 135°09'714.0
2017-Apr-26 16:00N 34°37' E 135°01'814.5
2017-Apr-26 15:29N 34°34' E 134°52'8 0.2
2017-Apr-25 07:50N 34°37' E 135°01'411.6
2017-Apr-25 07:30N 34°35' E 135°05'611.1
2017-Apr-25 07:00N 34°30' E 135°04'1611.8
2017-Apr-25 05:37N 34°13' E 135°01'111.4
2017-Apr-25 05:30N 34°12' E 135°02'611.8
2017-Apr-25 05:00N 34°08' E 135°06'1 2.3
2017-Apr-25 04:26N 34°07' E 135°07'0 0.0
2017-Apr-25 03:57N 34°07' E 135°07'0 0.0
2017-Apr-25 03:30N 34°07' E 135°07'0 0.0
2017-Apr-25 02:59N 34°07' E 135°07'0 0.0
2017-Apr-25 02:30N 34°07' E 135°07'0 0.0
2017-Apr-25 02:00N 34°07' E 135°07'0 0.0
2017-Apr-25 01:30N 34°07' E 135°07'0 0.0
2017-Apr-25 01:00N 34°07' E 135°07'0 0.0
2017-Apr-25 00:30N 34°07' E 135°07'0 0.0
2017-Apr-25 00:00N 34°07' E 135°07'0 0.0
2017-Apr-24 23:30N 34°07' E 135°07'0 0.0
2017-Apr-24 23:00N 34°07' E 135°07'0 0.0
2017-Apr-24 22:30N 34°07' E 135°07'0 0.1
2017-Apr-24 22:00N 34°07' E 135°07'1 1.1
2017-Apr-24 21:29N 34°07' E 135°07'0 0.0
2017-Apr-24 20:58N 34°07' E 135°07'0 0.0
2017-Apr-24 20:30N 34°07' E 135°07'0 0.0
2017-Apr-24 19:59N 34°07' E 135°07'0 0.0
2017-Apr-24 19:30N 34°07' E 135°07'0 0.0
2017-Apr-24 19:00N 34°07' E 135°07'0 0.0
2017-Apr-24 18:27N 34°07' E 135°07'0 0.1
2017-Apr-24 18:00N 34°07' E 135°07'0 0.0
2017-Apr-24 17:26N 34°07' E 135°07'0 0.0
2017-Apr-24 17:00N 34°07' E 135°07'0 0.0
2017-Apr-24 16:30N 34°07' E 135°07'0 0.0
2017-Apr-24 15:57N 34°07' E 135°07'0 0.0
2017-Apr-24 15:29N 34°07' E 135°07'0 0.0
2017-Apr-24 15:00N 34°07' E 135°07'0 0.0
2017-Apr-24 14:30N 34°07' E 135°07'  
2017-Apr-21 07:24N 34°37' E 135°01'512.8
2017-Apr-21 07:00N 34°35' E 135°07'612.2
2017-Apr-21 06:30N 34°34' E 135°14'612.2
2017-Apr-21 06:00N 34°33' E 135°22'3 0.6
2017-Apr-21 00:22N 34°33' E 135°26'0 0.0
2017-Apr-20 23:21N 34°33' E 135°26'0 0.0
2017-Apr-20 22:47N 34°33' E 135°26'1 3.7
2017-Apr-20 22:30N 34°33' E 135°24'510.0
2017-Apr-20 22:00N 34°33' E 135°18'0 0.0
2017-Apr-20 21:30N 34°33' E 135°18'0 0.0
2017-Apr-20 21:00N 34°33' E 135°18'0 0.0
2017-Apr-20 20:27N 34°33' E 135°18'0 0.0
2017-Apr-20 20:00N 34°33' E 135°18'0 0.0
2017-Apr-20 19:30N 34°33' E 135°18'0 0.0
2017-Apr-20 18:57N 34°33' E 135°18'0 0.0
2017-Apr-20 18:28N 34°33' E 135°18'0 0.0
2017-Apr-20 18:00N 34°33' E 135°18'0 0.0
2017-Apr-20 17:30N 34°33' E 135°18'0 0.0
2017-Apr-20 17:00N 34°33' E 135°18'0 0.0
2017-Apr-20 16:30N 34°33' E 135°18'0 0.0
2017-Apr-20 16:00N 34°33' E 135°18'0 0.0
2017-Apr-20 15:30N 34°33' E 135°18'0 0.0
2017-Apr-20 15:00N 34°33' E 135°18'0 0.0
2017-Apr-20 13:51N 34°33' E 135°18'0 0.1
2017-Apr-20 13:30N 34°33' E 135°18'2 4.1
2017-Apr-20 13:00N 34°33' E 135°16'612.6
2017-Apr-20 12:30N 34°34' E 135°09'713.2
2017-Apr-20 12:00N 34°37' E 135°01'  

Dump ship's entire track history